createdAt,value
2019-05-26T00:01:27.850Z,85.90
2019-05-26T00:03:55.301Z,86.10
2019-05-26T00:06:22.809Z,86.40
2019-05-26T00:08:50.242Z,86.80
2019-05-26T00:11:17.649Z,87.00
2019-05-26T00:13:45.290Z,87.20
2019-05-26T00:16:12.841Z,87.40
2019-05-26T00:18:40.434Z,87.70
2019-05-26T00:21:07.957Z,88.00
2019-05-26T00:23:35.534Z,88.30
2019-05-26T00:26:03.413Z,88.60
2019-05-26T00:28:31.019Z,88.90
2019-05-26T00:30:58.953Z,89.20
2019-05-26T00:33:26.534Z,89.40
2019-05-26T00:35:54.010Z,89.70
2019-05-26T00:38:21.629Z,90.00
2019-05-26T00:40:49.210Z,90.10
2019-05-26T00:43:16.838Z,90.30
2019-05-26T00:45:44.420Z,90.30
2019-05-26T00:48:11.946Z,90.40
2019-05-26T00:50:39.351Z,90.50
2019-05-26T00:53:06.894Z,90.60
2019-05-26T00:55:34.437Z,90.70
2019-05-26T00:58:02.110Z,90.80
2019-05-26T01:00:41.396Z,90.90
2019-05-26T01:03:09.575Z,91.00
2019-05-26T01:05:37.298Z,91.10
2019-05-26T01:08:06.761Z,91.10
2019-05-26T01:10:36.139Z,91.20
2019-05-26T01:13:04.495Z,91.30
2019-05-26T01:15:32.013Z,91.40
2019-05-26T01:17:59.579Z,91.50
2019-05-26T01:20:27.233Z,91.50
2019-05-26T01:22:54.798Z,91.60
2019-05-26T01:25:22.098Z,91.70
2019-05-26T01:27:49.830Z,91.80
2019-05-26T01:30:18.637Z,91.80
2019-05-26T01:32:46.071Z,91.90
2019-05-26T01:35:13.753Z,92.00
2019-05-26T01:37:41.899Z,92.00
2019-05-26T01:40:09.623Z,92.10
2019-05-26T01:42:38.833Z,92.10
2019-05-26T01:45:06.946Z,92.20
2019-05-26T01:47:34.550Z,92.30
2019-05-26T01:50:01.989Z,92.30
2019-05-26T01:52:29.559Z,92.40
2019-05-26T01:54:58.489Z,92.50
2019-05-26T01:57:25.868Z,92.50
2019-05-26T01:59:53.354Z,92.60
2019-05-26T02:02:20.816Z,92.70
2019-05-26T02:04:48.470Z,92.80
2019-05-26T02:07:15.987Z,92.80
2019-05-26T02:09:43.470Z,92.80
2019-05-26T02:12:10.862Z,92.90
2019-05-26T02:14:38.230Z,93.00
2019-05-26T02:17:06.749Z,93.00
2019-05-26T02:19:35.030Z,93.10
2019-05-26T02:22:03.140Z,93.10
2019-05-26T02:24:31.082Z,93.20
2019-05-26T02:26:58.562Z,93.30
2019-05-26T02:29:25.882Z,93.40
2019-05-26T02:31:53.347Z,93.40
2019-05-26T02:34:20.831Z,93.50
2019-05-26T02:36:48.300Z,93.50
2019-05-26T02:39:15.839Z,93.60
2019-05-26T02:41:43.159Z,93.60
2019-05-26T02:44:10.731Z,93.70
2019-05-26T02:46:38.247Z,93.70
2019-05-26T02:49:05.795Z,93.70
2019-05-26T02:51:33.331Z,93.80
2019-05-26T02:54:00.841Z,93.90
2019-05-26T02:56:28.499Z,93.90
2019-05-26T02:58:55.946Z,93.90
2019-05-26T03:01:23.811Z,94.00
2019-05-26T03:03:52.912Z,94.00
2019-05-26T03:06:21.847Z,94.00
2019-05-26T03:08:51.919Z,94.10
2019-05-26T03:11:19.975Z,94.10
2019-05-26T03:13:48.600Z,94.10
2019-05-26T03:16:19.061Z,94.20
2019-05-26T03:18:46.912Z,94.20
2019-05-26T03:21:17.000Z,94.20
2019-05-26T03:23:46.689Z,94.30
2019-05-26T03:26:17.234Z,94.40
2019-05-26T03:28:44.914Z,94.30
2019-05-26T03:31:12.502Z,94.40
2019-05-26T03:33:40.059Z,94.40
2019-05-26T03:36:10.508Z,94.50
2019-05-26T03:38:36.895Z,94.50
2019-05-26T03:41:04.903Z,94.50
2019-05-26T03:43:32.379Z,94.50
2019-05-26T03:46:17.290Z,94.60
2019-05-26T03:48:46.150Z,94.60
2019-05-26T03:51:13.873Z,94.60
2019-05-26T03:53:41.517Z,94.60
2019-05-26T03:56:08.828Z,94.60
2019-05-26T03:58:36.178Z,94.70
2019-05-26T04:01:04.393Z,94.80
2019-05-26T04:03:31.916Z,94.70
2019-05-26T04:05:59.587Z,94.70
2019-05-26T04:08:27.099Z,94.80
2019-05-26T04:10:54.629Z,94.80
2019-05-26T04:13:23.349Z,94.80
2019-05-26T04:15:50.821Z,94.90
2019-05-26T04:18:18.360Z,94.80
2019-05-26T04:20:46.127Z,94.90
2019-05-26T04:23:14.040Z,94.90
2019-05-26T04:25:41.598Z,94.90
2019-05-26T04:28:09.119Z,94.90
2019-05-26T04:30:36.484Z,94.90
2019-05-26T04:33:06.368Z,94.90
2019-05-26T04:35:33.885Z,94.90
2019-05-26T04:38:01.738Z,94.90
2019-05-26T04:40:29.275Z,94.90
2019-05-26T04:42:56.844Z,94.90
2019-05-26T04:45:24.544Z,94.90
2019-05-26T04:47:52.063Z,94.90
2019-05-26T04:50:19.439Z,94.90
2019-05-26T04:53:04.663Z,94.90
2019-05-26T04:55:16.603Z,94.90
2019-05-26T04:57:44.054Z,94.90
2019-05-26T05:00:11.882Z,94.90
2019-05-26T05:02:39.386Z,94.90
2019-05-26T05:05:08.055Z,94.90
2019-05-26T05:07:36.679Z,94.90
2019-05-26T05:10:04.917Z,94.90
2019-05-26T05:12:32.849Z,94.90
2019-05-26T05:15:00.378Z,94.80
2019-05-26T05:17:27.782Z,94.80
2019-05-26T05:19:55.189Z,94.70
2019-05-26T05:22:22.714Z,94.70
2019-05-26T05:24:50.406Z,94.90
2019-05-26T05:27:17.851Z,94.60
2019-05-26T05:29:45.383Z,94.50
2019-05-26T05:32:13.103Z,94.40
2019-05-26T05:34:40.734Z,94.30
2019-05-26T05:37:08.197Z,94.30
2019-05-26T05:39:36.648Z,94.20
2019-05-26T05:42:05.566Z,94.10
2019-05-26T05:44:32.895Z,94.10
2019-05-26T05:47:00.414Z,94.00
2019-05-26T05:49:27.957Z,93.80
2019-05-26T05:51:55.518Z,93.80
2019-05-26T05:54:23.210Z,93.70
2019-05-26T05:56:50.758Z,93.60
2019-05-26T05:59:18.184Z,93.50
2019-05-26T06:01:45.545Z,93.60
2019-05-26T06:04:13.039Z,93.20
2019-05-26T06:06:40.551Z,93.20
2019-05-26T06:09:08.058Z,92.80
2019-05-26T06:11:36.333Z,92.90
2019-05-26T06:14:04.760Z,92.50
2019-05-26T06:16:33.591Z,92.30
2019-05-26T06:19:01.195Z,92.20
2019-05-26T06:21:28.790Z,92.10
2019-05-26T06:23:56.374Z,92.00
2019-05-26T06:26:23.837Z,91.70
2019-05-26T06:28:52.822Z,91.50
2019-05-26T06:31:20.932Z,91.40
2019-05-26T06:33:48.748Z,91.20
2019-05-26T06:36:16.574Z,91.10
2019-05-26T06:38:45.083Z,90.70
2019-05-26T06:41:12.679Z,90.40
2019-05-26T06:43:40.869Z,90.30
2019-05-26T06:46:08.667Z,90.20
2019-05-26T06:48:36.056Z,90.10
2019-05-26T06:51:04.308Z,90.10
2019-05-26T06:53:32.133Z,89.90
2019-05-26T06:55:59.943Z,89.80
2019-05-26T06:58:28.667Z,89.70
2019-05-26T07:00:56.336Z,89.30
2019-05-26T07:03:24.901Z,89.00
2019-05-26T07:05:52.943Z,88.80
2019-05-26T07:08:20.501Z,88.50
2019-05-26T07:10:48.109Z,88.20
2019-05-26T07:13:15.654Z,88.10
2019-05-26T07:15:43.119Z,87.90
2019-05-26T07:18:12.152Z,87.80
2019-05-26T07:20:40.510Z,87.60
2019-05-26T07:23:09.182Z,87.50
2019-05-26T07:25:38.087Z,87.40
2019-05-26T07:28:05.669Z,86.90
2019-05-26T07:30:32.958Z,86.80
2019-05-26T07:33:00.630Z,86.30
2019-05-26T07:35:28.656Z,86.40
2019-05-26T07:37:56.118Z,86.10
2019-05-26T07:40:23.609Z,85.80
2019-05-26T07:42:51.363Z,85.60
2019-05-26T07:45:19.584Z,85.30
2019-05-26T07:47:49.031Z,85.50
2019-05-26T07:50:17.098Z,84.60
2019-05-26T07:52:44.926Z,84.50
2019-05-26T07:55:14.274Z,84.60
2019-05-26T07:57:41.825Z,83.60
2019-05-26T08:00:09.923Z,83.30
2019-05-26T08:02:37.485Z,83.10
2019-05-26T08:05:06.937Z,82.60
2019-05-26T08:07:39.629Z,82.00
2019-05-26T08:10:08.565Z,81.40
2019-05-26T08:12:36.397Z,80.90
2019-05-26T08:15:07.847Z,80.50
2019-05-26T08:17:36.919Z,80.10
2019-05-26T08:20:12.168Z,79.70
2019-05-26T08:22:39.752Z,79.20
2019-05-26T08:25:07.799Z,78.60
2019-05-26T08:27:35.400Z,78.20
2019-05-26T08:30:05.080Z,77.70
2019-05-26T08:32:32.745Z,77.20
2019-05-26T08:35:00.419Z,76.30
2019-05-26T08:37:28.024Z,75.80
2019-05-26T08:39:58.575Z,75.60
2019-05-26T08:42:28.972Z,75.30
2019-05-26T08:44:55.879Z,74.80
2019-05-26T08:47:23.792Z,74.40
2019-05-26T08:49:51.379Z,73.80
2019-05-26T08:52:19.229Z,73.60
2019-05-26T08:54:46.765Z,73.50
2019-05-26T08:57:14.386Z,73.70
2019-05-26T08:59:45.287Z,73.70
2019-05-26T09:02:12.725Z,73.80
2019-05-26T09:04:42.340Z,73.50
2019-05-26T09:07:10.738Z,73.60
2019-05-26T09:09:38.479Z,73.60
2019-05-26T09:12:06.765Z,73.70
2019-05-26T09:14:38.131Z,73.90
2019-05-26T09:17:15.748Z,74.10
2019-05-26T09:19:44.616Z,74.30
2019-05-26T09:22:12.053Z,74.60
2019-05-26T09:24:40.109Z,74.90
2019-05-26T09:27:10.806Z,75.10
2019-05-26T09:30:04.120Z,75.20
2019-05-26T09:32:31.861Z,75.30
2019-05-26T09:35:00.650Z,75.50
2019-05-26T09:37:28.330Z,75.20
2019-05-26T09:39:55.934Z,75.10
2019-05-26T09:42:23.570Z,75.20
2019-05-26T09:44:52.357Z,75.10
2019-05-26T09:47:20.129Z,74.50
2019-05-26T09:49:47.729Z,74.40
2019-05-26T09:52:18.447Z,74.20
2019-05-26T09:54:47.634Z,73.50
2019-05-26T09:57:15.126Z,72.90
2019-05-26T09:59:44.959Z,72.60
2019-05-26T10:02:12.792Z,72.40
2019-05-26T10:04:40.624Z,71.60
2019-05-26T10:07:14.927Z,70.70
2019-05-26T10:09:40.238Z,70.00
2019-05-26T10:12:08.434Z,69.50
2019-05-26T10:14:36.077Z,69.20
2019-05-26T10:17:03.810Z,68.90
2019-05-26T10:19:31.545Z,68.30
2019-05-26T10:21:59.143Z,68.20
2019-05-26T10:24:26.884Z,67.60
2019-05-26T10:26:54.322Z,66.90
2019-05-26T10:29:21.859Z,66.50
2019-05-26T10:31:50.609Z,66.30
2019-05-26T10:34:18.127Z,65.70
2019-05-26T10:36:49.051Z,64.70
2019-05-26T10:39:17.378Z,64.90
2019-05-26T10:41:45.148Z,65.20
2019-05-26T10:44:12.760Z,65.20
2019-05-26T10:46:43.278Z,64.80
2019-05-26T10:49:14.469Z,64.20
2019-05-26T10:51:43.030Z,63.60
2019-05-26T10:54:13.735Z,63.30
2019-05-26T10:56:54.016Z,63.40
2019-05-26T10:59:21.687Z,63.70
2019-05-26T11:01:49.155Z,62.60
2019-05-26T11:04:16.794Z,62.70
2019-05-26T11:06:44.391Z,62.40
2019-05-26T11:09:11.983Z,61.70
2019-05-26T11:11:39.603Z,61.80
2019-05-26T11:14:07.260Z,61.80
2019-05-26T11:16:34.899Z,61.80
2019-05-26T11:19:04.759Z,61.60
2019-05-26T11:21:33.502Z,61.50
2019-05-26T11:24:00.980Z,61.40
2019-05-26T11:26:28.494Z,61.20
2019-05-26T11:28:55.946Z,61.10
2019-05-26T11:31:23.569Z,60.80
2019-05-26T11:33:51.206Z,60.40
2019-05-26T11:36:18.758Z,59.50
2019-05-26T11:38:46.378Z,59.50
2019-05-26T11:41:14.002Z,59.60
2019-05-26T11:43:42.678Z,59.70
2019-05-26T11:46:10.445Z,59.20
2019-05-26T11:48:39.367Z,58.90
2019-05-26T11:51:07.066Z,58.90
2019-05-26T11:53:34.695Z,59.20
2019-05-26T11:56:02.266Z,58.60
2019-05-26T11:58:31.532Z,57.90
2019-05-26T12:01:00.333Z,57.70
2019-05-26T12:03:27.982Z,57.80
2019-05-26T12:05:55.575Z,57.50
2019-05-26T12:08:23.342Z,57.20
2019-05-26T12:10:51.133Z,57.60
2019-05-26T12:13:18.739Z,57.60
2019-05-26T12:15:47.408Z,57.20
2019-05-26T12:18:15.997Z,56.80
2019-05-26T12:20:43.867Z,56.80
2019-05-26T12:23:12.542Z,56.30
2019-05-26T12:25:40.218Z,56.00
2019-05-26T12:28:09.055Z,56.00
2019-05-26T12:30:36.623Z,56.30
2019-05-26T12:33:05.358Z,56.50
2019-05-26T12:35:46.072Z,56.40
2019-05-26T12:38:14.219Z,56.30
2019-05-26T12:40:41.957Z,56.20
2019-05-26T12:43:09.744Z,56.30
2019-05-26T12:45:37.448Z,56.60
2019-05-26T12:48:05.317Z,56.20
2019-05-26T12:50:33.900Z,55.80
2019-05-26T12:53:01.582Z,55.50
2019-05-26T12:55:29.044Z,55.60
2019-05-26T12:57:56.639Z,55.60
2019-05-26T13:00:24.342Z,55.50
2019-05-26T13:02:51.908Z,55.90
2019-05-26T13:05:19.839Z,55.60
2019-05-26T13:07:47.563Z,55.70
2019-05-26T13:10:15.594Z,55.80
2019-05-26T13:12:43.091Z,55.80
2019-05-26T13:15:12.978Z,55.80
2019-05-26T13:17:40.702Z,56.00
2019-05-26T13:20:11.867Z,56.20
2019-05-26T13:22:40.606Z,56.60
2019-05-26T13:25:09.464Z,56.70
2019-05-26T13:27:37.244Z,57.00
2019-05-26T13:30:05.613Z,57.10
2019-05-26T13:32:33.191Z,57.20
2019-05-26T13:35:02.715Z,57.20
2019-05-26T13:37:30.639Z,57.70
2019-05-26T13:39:58.112Z,58.00
2019-05-26T13:42:25.506Z,58.20
2019-05-26T13:44:52.962Z,58.40
2019-05-26T13:47:26.250Z,58.60
2019-05-26T13:49:50.249Z,58.70
2019-05-26T13:52:17.753Z,58.70
2019-05-26T13:54:45.250Z,58.80
2019-05-26T13:57:12.861Z,58.80
2019-05-26T13:59:41.550Z,58.90
2019-05-26T14:02:09.079Z,58.90
2019-05-26T14:04:36.925Z,58.90
2019-05-26T14:07:04.655Z,59.00
2019-05-26T14:09:32.332Z,58.70
2019-05-26T14:11:59.970Z,58.50
2019-05-26T14:14:27.543Z,58.50
2019-05-26T14:16:55.429Z,58.70
2019-05-26T14:19:26.153Z,58.50
2019-05-26T14:21:53.789Z,58.70
2019-05-26T14:24:21.371Z,58.70
2019-05-26T14:26:54.984Z,58.70
2019-05-26T14:29:22.965Z,58.70
2019-05-26T14:31:52.775Z,58.70
2019-05-26T14:34:20.154Z,58.50
2019-05-26T14:36:47.617Z,58.50
2019-05-26T14:39:15.395Z,58.50
2019-05-26T14:41:43.053Z,58.70
2019-05-26T14:44:12.015Z,58.80
2019-05-26T14:46:39.580Z,58.80
2019-05-26T14:49:07.182Z,58.90
2019-05-26T14:51:34.963Z,59.00
2019-05-26T14:54:03.617Z,58.80
2019-05-26T14:56:47.078Z,59.00
2019-05-26T14:59:14.857Z,59.10
2019-05-26T15:01:42.605Z,59.20
2019-05-26T15:04:10.170Z,59.20
2019-05-26T15:06:38.359Z,59.30
2019-05-26T15:09:07.294Z,59.50
2019-05-26T15:11:34.912Z,59.70
2019-05-26T15:14:02.839Z,59.80
2019-05-26T15:16:30.555Z,60.10
2019-05-26T15:18:58.265Z,60.20
2019-05-26T15:21:25.939Z,60.50
2019-05-26T15:23:53.703Z,60.70
2019-05-26T15:26:21.474Z,60.80
2019-05-26T15:28:48.892Z,60.90
2019-05-26T15:31:16.624Z,61.20
2019-05-26T15:33:44.337Z,61.20
2019-05-26T15:36:12.273Z,61.40
2019-05-26T15:38:43.267Z,62.10
2019-05-26T15:41:10.362Z,61.50
2019-05-26T15:43:37.949Z,61.60
2019-05-26T15:46:05.548Z,61.60
2019-05-26T15:48:32.913Z,61.80
2019-05-26T15:51:00.485Z,62.20
2019-05-26T15:53:28.034Z,62.40
2019-05-26T15:55:55.405Z,62.50
2019-05-26T15:58:22.924Z,62.70
2019-05-26T16:00:50.455Z,62.70
2019-05-26T16:03:18.098Z,62.70
2019-05-26T16:05:45.736Z,62.90
2019-05-26T16:08:15.328Z,63.10
2019-05-26T16:10:43.170Z,63.20
2019-05-26T16:13:10.939Z,63.50
2019-05-26T16:15:38.374Z,64.10
2019-05-26T16:18:05.857Z,64.60
2019-05-26T16:20:33.407Z,64.80
2019-05-26T16:23:01.051Z,65.00
2019-05-26T16:25:28.760Z,65.20
2019-05-26T16:27:56.159Z,65.80
2019-05-26T16:30:23.711Z,66.40
2019-05-26T16:32:51.141Z,65.90
2019-05-26T16:35:18.734Z,66.20
2019-05-26T16:37:48.587Z,66.50
2019-05-26T16:40:15.953Z,66.90
2019-05-26T16:42:43.879Z,67.60
2019-05-26T16:45:11.928Z,68.40
2019-05-26T16:47:39.541Z,69.30
2019-05-26T16:50:09.176Z,70.60
2019-05-26T16:52:36.842Z,71.50
2019-05-26T16:55:04.706Z,72.80
2019-05-26T16:57:32.534Z,73.90
2019-05-26T16:59:59.970Z,75.10
2019-05-26T17:02:27.493Z,76.00
2019-05-26T17:04:54.882Z,76.70
2019-05-26T17:07:22.567Z,77.70
2019-05-26T17:09:50.186Z,78.50
2019-05-26T17:12:17.533Z,79.30
2019-05-26T17:14:45.044Z,80.30
2019-05-26T17:17:15.143Z,81.20
2019-05-26T17:19:42.376Z,82.10
2019-05-26T17:22:09.819Z,83.20
2019-05-26T17:24:37.420Z,84.60
2019-05-26T17:27:04.860Z,85.70
2019-05-26T17:29:32.307Z,86.90
2019-05-26T17:31:59.825Z,88.20
2019-05-26T17:34:27.394Z,89.50
2019-05-26T17:36:55.471Z,90.20
2019-05-26T17:39:37.657Z,90.90
2019-05-26T17:42:05.611Z,91.30
2019-05-26T17:44:33.230Z,91.70
2019-05-26T17:47:00.800Z,92.10
2019-05-26T17:49:28.450Z,92.50
2019-05-26T17:51:55.954Z,93.10
2019-05-26T17:54:23.519Z,93.30
2019-05-26T17:56:51.279Z,93.60
2019-05-26T17:59:18.956Z,94.00
2019-05-26T18:01:47.332Z,94.30
2019-05-26T18:04:15.233Z,94.40
2019-05-26T18:06:45.956Z,96.20
2019-05-26T18:09:13.564Z,96.00
2019-05-26T18:11:41.150Z,95.90
2019-05-26T18:14:08.774Z,96.00
2019-05-26T18:16:36.181Z,95.90
2019-05-26T18:19:04.198Z,95.90
2019-05-26T18:21:32.348Z,96.00
2019-05-26T18:24:00.119Z,96.00
2019-05-26T18:26:27.596Z,96.10
2019-05-26T18:28:57.290Z,96.10
2019-05-26T18:31:28.694Z,96.10
2019-05-26T18:33:54.171Z,96.20
2019-05-26T18:36:21.973Z,96.20
2019-05-26T18:38:49.663Z,96.30
2019-05-26T18:41:17.554Z,96.30
2019-05-26T18:43:45.223Z,96.60
2019-05-26T18:46:13.272Z,96.30
2019-05-26T18:48:41.030Z,96.40
2019-05-26T18:51:08.858Z,96.40
2019-05-26T18:53:36.498Z,96.40
2019-05-26T18:56:04.168Z,96.40
2019-05-26T18:58:31.763Z,96.50
2019-05-26T19:00:59.324Z,96.50
2019-05-26T19:03:27.081Z,96.50
2019-05-26T19:05:54.783Z,96.50
2019-05-26T19:08:22.335Z,96.50
2019-05-26T19:10:49.925Z,97.20
2019-05-26T19:13:17.549Z,97.10
2019-05-26T19:15:45.188Z,96.80
2019-05-26T19:18:19.941Z,96.70
2019-05-26T19:20:43.264Z,96.60
2019-05-26T19:23:12.961Z,96.60
2019-05-26T19:25:40.523Z,96.50
2019-05-26T19:28:08.276Z,96.50
2019-05-26T19:30:37.860Z,96.50
2019-05-26T19:33:05.506Z,96.50
2019-05-26T19:35:33.281Z,96.40
2019-05-26T19:38:01.161Z,96.40
2019-05-26T19:40:29.115Z,96.40
2019-05-26T19:42:57.076Z,97.00
2019-05-26T19:45:24.967Z,96.70
2019-05-26T19:47:52.583Z,96.50
2019-05-26T19:50:20.325Z,96.40
2019-05-26T19:52:49.878Z,96.30
2019-05-26T19:55:17.464Z,96.20
2019-05-26T19:57:45.150Z,96.10
2019-05-26T20:00:15.498Z,96.00
2019-05-26T20:02:43.458Z,95.90
2019-05-26T20:05:11.279Z,95.80
2019-05-26T20:07:39.131Z,95.70
2019-05-26T20:10:07.518Z,95.60
2019-05-26T20:12:36.331Z,95.50
2019-05-26T20:15:04.953Z,95.50
2019-05-26T20:17:33.823Z,95.80
2019-05-26T20:20:04.663Z,95.40
2019-05-26T20:22:32.238Z,95.30
2019-05-26T20:24:59.931Z,95.20
2019-05-26T20:27:27.473Z,95.20
2019-05-26T20:29:55.116Z,95.20
2019-05-26T20:32:22.733Z,95.30
2019-05-26T20:34:50.636Z,95.10
2019-05-26T20:37:18.086Z,95.00
2019-05-26T20:39:45.801Z,95.00
2019-05-26T20:42:13.326Z,95.00
2019-05-26T20:44:41.051Z,95.00
2019-05-26T20:47:08.759Z,94.80
2019-05-26T20:49:44.970Z,94.70
2019-05-26T20:52:05.932Z,94.70
2019-05-26T20:54:33.548Z,94.70
2019-05-26T20:57:01.697Z,94.70
2019-05-26T20:59:29.388Z,94.70
2019-05-26T21:01:56.974Z,94.70
2019-05-26T21:04:24.617Z,94.80
2019-05-26T21:06:52.601Z,94.80
2019-05-26T21:09:20.102Z,94.90
2019-05-26T21:11:50.402Z,94.90
2019-05-26T21:14:18.065Z,94.90
2019-05-26T21:16:45.599Z,95.00
2019-05-26T21:19:13.207Z,95.10
2019-05-26T21:21:41.086Z,95.20
2019-05-26T21:24:08.770Z,95.30
2019-05-26T21:26:36.398Z,95.40
2019-05-26T21:29:04.088Z,95.60
2019-05-26T21:31:32.396Z,95.70
2019-05-26T21:34:00.101Z,95.90
2019-05-26T21:36:27.685Z,96.10
2019-05-26T21:38:55.295Z,96.20
2019-05-26T21:41:23.018Z,96.40
2019-05-26T21:43:50.811Z,96.60
2019-05-26T21:46:19.589Z,96.80
2019-05-26T21:48:48.336Z,97.00
2019-05-26T21:51:16.036Z,97.20
2019-05-26T21:53:45.661Z,98.60
2019-05-26T21:56:13.337Z,98.40
2019-05-26T21:58:40.850Z,99.40
2019-05-26T22:01:08.762Z,99.10
2019-05-26T22:03:36.676Z,99.20
2019-05-26T22:06:04.303Z,99.20
2019-05-26T22:08:33.064Z,99.30
2019-05-26T22:11:01.458Z,99.30
2019-05-26T22:13:29.154Z,99.30
2019-05-26T22:15:56.708Z,99.40
2019-05-26T22:18:24.418Z,99.60
2019-05-26T22:20:52.078Z,99.60
2019-05-26T22:23:20.814Z,99.70
2019-05-26T22:25:50.660Z,99.80
2019-05-26T22:28:18.255Z,99.90
2019-05-26T22:30:45.839Z,99.90
2019-05-26T22:33:14.571Z,99.90
2019-05-26T22:35:42.227Z,99.90
2019-05-26T22:38:09.794Z,99.90
2019-05-26T22:40:37.317Z,99.90
2019-05-26T22:43:04.875Z,99.90
2019-05-26T22:45:37.959Z,99.90
2019-05-26T22:48:06.129Z,99.90
2019-05-26T22:50:33.867Z,99.90
2019-05-26T22:53:02.279Z,99.90
2019-05-26T22:55:29.759Z,99.90
2019-05-26T22:57:59.222Z,99.90
2019-05-26T23:00:27.758Z,99.90
2019-05-26T23:02:55.381Z,99.90
2019-05-26T23:05:23.097Z,99.90
2019-05-26T23:07:53.279Z,99.90
2019-05-26T23:10:20.858Z,99.90
2019-05-26T23:12:50.503Z,99.90
2019-05-26T23:15:18.319Z,99.90
2019-05-26T23:17:45.956Z,99.90
2019-05-26T23:20:13.783Z,99.90
2019-05-26T23:22:41.381Z,99.90
2019-05-26T23:25:09.289Z,99.90
2019-05-26T23:27:36.934Z,99.90
2019-05-26T23:30:04.897Z,99.90
2019-05-26T23:32:32.557Z,99.90
2019-05-26T23:35:00.210Z,99.90
2019-05-26T23:37:27.791Z,99.90
2019-05-26T23:39:55.365Z,99.90
2019-05-26T23:42:23.017Z,99.90
2019-05-26T23:44:50.710Z,99.90
2019-05-26T23:47:18.278Z,99.90
2019-05-26T23:49:45.835Z,99.90
2019-05-26T23:52:13.350Z,99.90
2019-05-26T23:54:40.943Z,99.90
2019-05-26T23:57:08.639Z,99.90
2019-05-26T23:59:36.377Z,99.90
